Perla Bulker — 3ELH — position and weather

sailwx.info

Track history (hours):
 
Tides and Currents Weather Stations Pressure Air Temp Water Temp Dewpoint Dewpoint Depression Visibility Wind Speed Wind Dir Waves Ship Positions

Perla Bulker

Last reported at 2017-May-18 04:20 UTC. Time now 2017-May-25 12:36 UTC.
Position N 31°31' E 125°23'.

Length 225 m; draft 7.3 m.

Type: Cargo ship. MMSI: 372944009.

Date/timePositionNaut miles runAvg speedWind from/ knotsBaromVisibWave heightAir tempDewpointWater temp
2017-May-18 04:20N 31°31' E 125°23'4314.4
2017-May-18 01:19N 32°14' E 125°14'514.5
2017-May-18 01:00N 32°19' E 125°13'714.6
2017-May-18 00:30N 32°26' E 125°12'714.5
2017-May-18 00:00N 32°33' E 125°10'714.3
2017-May-17 23:30N 32°40' E 125°09'714.1
2017-May-17 23:00N 32°47' E 125°08'713.9
2017-May-17 22:30N 32°54' E 125°06'713.6
2017-May-17 22:00N 33°01' E 125°05'713.7
2017-May-17 21:30N 33°07' E 125°03'713.4
2017-May-17 20:59N 33°14' E 125°02'613.3
2017-May-17 20:30N 33°20' E 125°01'  
Track history (hours):
 
Tides and Currents Weather Stations Pressure Air Temp Water Temp Dewpoint Dewpoint Depression Visibility Wind Speed Wind Dir Waves Ship Positions

Perla Bulker

Last reported at 2017-May-18 04:20 UTC. Time now 2017-May-25 12:36 UTC.
Position N 31°31' E 125°23'.

Length 225 m; draft 7.3 m.

Type: Cargo ship. MMSI: 372944009.

Date/timePositionNaut miles runAvg speedWind from/ knotsBaromVisibWave heightAir tempDewpointWater temp
2017-May-18 04:20N 31°31' E 125°23'4314.4
2017-May-18 01:19N 32°14' E 125°14'514.5
2017-May-18 01:00N 32°19' E 125°13'714.6
2017-May-18 00:30N 32°26' E 125°12'714.5
2017-May-18 00:00N 32°33' E 125°10'714.3
2017-May-17 23:30N 32°40' E 125°09'714.1
2017-May-17 23:00N 32°47' E 125°08'713.9
2017-May-17 22:30N 32°54' E 125°06'713.6
2017-May-17 22:00N 33°01' E 125°05'713.7
2017-May-17 21:30N 33°07' E 125°03'713.4
2017-May-17 20:59N 33°14' E 125°02'613.3
2017-May-17 20:30N 33°20' E 125°01'  

Dump ship's entire track history